Kezdőlap
METAR-TAF:

METAR-TAF

Repülőterek :

Kuusamo, Finnország

földrajzi szélesség: 65-58N, földrajzi hosszúság: 029-11E, magasság: 262 m

Jelenlegi meteorológiai megfigyelések

A jelentés 37 perccel ezelõtt készült, 22:20 UTC
Kelet-délkeleti szél 2 kt
Hőmérséklet 2°C
Páratartalom 100%
Légköri nyomás 1006 hPa
Látótávolság: 1200 m
Borult 1000 lábon
enyhe záporok

METAR: EFKS 132220Z AUTO 11002KT 1200 R12/1200U -SHRA OVC010 02/02 Q1006

Idő: 00:57 (22:57 UTC)

Előrejelzés

A jelentés 14 órával és 19 perccel ezelõtt készült, 08:38 UTC
Az előrejelzés 13-én 09 óra UTC és 13-én 13 óra UTC között érvényes
Dél-délnyugati szél 9 kt
Látótávolság: 8000 m
Szakadozott felhőzet 300 lábon
enyhe szitálás
13-én 09 óra UTC és 13-én 13 óra UTC között ideiglenes
Látótávolság: 1000 m
Borult 100 lábon
Párásság

TAF: EFKS 130838Z 1309/1313 20009KT 8000 -DZ BKN003 TEMPO 1309/1313 1000 BR OVC001

Meteorológiai megfigyelések és előrejelzések több, mint 4000 repülőtéren (METAR és TAF jelentéseket).

A térképen piros és sárga pontok jelzik az elérhető meteorológiai állomásokat.

Mozgassa az egeret a pont fölött, hogy megjelenjen az állomás neve.

Azután kattintson az időjárási megfigyelések és előrejelzések megtekintéséhez.

A térkép megváltoztatása: kattintson a fekete keresztel jelölt zöld gombra ráközelítéshez, a vonallal jelölt zöld gombra távolításhoz, vagy a zöld nyilakra a szomszédos térképek eléréséhez.


METAR-TAF: